createdAt,value
2023-07-09T00:01:07.473Z,98232.69
2023-07-09T00:03:08.917Z,98236.91
2023-07-09T00:05:10.320Z,98235.19
2023-07-09T00:07:11.756Z,98232.75
2023-07-09T00:09:13.399Z,98231.09
2023-07-09T00:11:14.816Z,98240.56
2023-07-09T00:13:16.281Z,98238.94
2023-07-09T00:15:19.261Z,98243.13
2023-07-09T00:17:20.895Z,98247.28
2023-07-09T00:19:25.095Z,98240.63
2023-07-09T00:21:26.796Z,98261.13
2023-07-09T00:23:28.748Z,98248.13
2023-07-09T00:25:30.152Z,98243.13
2023-07-09T00:27:34.712Z,98239.78
2023-07-09T00:29:36.134Z,98252.78
2023-07-09T00:31:40.029Z,98242.84
2023-07-09T00:33:41.436Z,98245.44
2023-07-09T00:35:42.942Z,98243.03
2023-07-09T00:37:44.729Z,98243.13
2023-07-09T00:39:46.138Z,98237.25
2023-07-09T00:41:48.309Z,98239.81
2023-07-09T00:43:50.001Z,98246.69
2023-07-09T00:45:52.584Z,98245.13
2023-07-09T00:47:54.099Z,98238.22
2023-07-09T00:49:58.431Z,98237.19
2023-07-09T00:52:02.678Z,98245.00
2023-07-09T00:54:08.327Z,98244.97
2023-07-09T00:56:10.926Z,98238.97
2023-07-09T00:58:12.430Z,98236.56
2023-07-09T01:00:15.573Z,98235.84
2023-07-09T01:02:17.007Z,98235.00
2023-07-09T01:04:18.915Z,98237.50
2023-07-09T01:06:20.337Z,98235.88
2023-07-09T01:08:21.858Z,98235.91
2023-07-09T01:10:23.370Z,98234.13
2023-07-09T01:12:24.837Z,98229.72
2023-07-09T01:14:27.278Z,98230.50
2023-07-09T01:16:28.947Z,98233.72
2023-07-09T01:18:31.021Z,98231.13
2023-07-09T01:20:32.499Z,98239.69
2023-07-09T01:22:33.891Z,98233.72
2023-07-09T01:24:37.042Z,98240.63
2023-07-09T01:26:39.843Z,98244.94
2023-07-09T01:28:44.689Z,98241.69
2023-07-09T01:30:46.149Z,98241.59
2023-07-09T01:32:47.701Z,98234.00
2023-07-09T01:34:49.156Z,98238.97
2023-07-09T01:36:52.377Z,98239.03
2023-07-09T01:38:54.692Z,98238.31
2023-07-09T01:40:56.063Z,98236.72
2023-07-09T01:42:58.396Z,98240.97
2023-07-09T01:44:59.843Z,98247.69
2023-07-09T01:47:02.885Z,98247.72
2023-07-09T01:49:04.384Z,98245.22
2023-07-09T01:51:05.773Z,98244.31
2023-07-09T01:53:09.804Z,98252.94
2023-07-09T01:55:11.663Z,98251.97
2023-07-09T01:57:13.118Z,98246.03
2023-07-09T01:59:14.483Z,98238.25
2023-07-09T02:01:18.160Z,98236.72
2023-07-09T02:03:19.578Z,98236.75
2023-07-09T02:05:21.064Z,98235.25
2023-07-09T02:07:22.496Z,98237.75
2023-07-09T02:09:23.918Z,98231.84
2023-07-09T02:11:25.390Z,98237.81
2023-07-09T02:13:26.796Z,98235.28
2023-07-09T02:15:28.192Z,98234.47
2023-07-09T02:17:29.654Z,98242.84
2023-07-09T02:19:31.243Z,98238.69
2023-07-09T02:21:32.614Z,98229.47
2023-07-09T02:23:33.997Z,98235.56
2023-07-09T02:25:35.444Z,98232.19
2023-07-09T02:27:36.827Z,98243.22
2023-07-09T02:29:39.278Z,98241.47
2023-07-09T02:31:41.398Z,98245.72
2023-07-09T02:33:43.058Z,98249.88
2023-07-09T02:35:44.860Z,98234.63
2023-07-09T02:37:46.355Z,98235.50
2023-07-09T02:39:47.835Z,98237.94
2023-07-09T02:41:49.281Z,98238.16
2023-07-09T02:43:50.669Z,98243.28
2023-07-09T02:45:52.057Z,98253.28
2023-07-09T02:47:53.543Z,98249.94
2023-07-09T02:49:55.211Z,98242.19
2023-07-09T02:51:56.684Z,98240.25
2023-07-09T02:53:58.051Z,98240.28
2023-07-09T02:55:59.493Z,98236.13
2023-07-09T02:58:00.900Z,98241.19
2023-07-09T03:00:08.749Z,98243.13
2023-07-09T03:02:10.501Z,98243.13
2023-07-09T03:04:11.940Z,98241.47
2023-07-09T03:06:13.403Z,98243.09
2023-07-09T03:08:15.658Z,98243.78
2023-07-09T03:10:17.058Z,98243.25
2023-07-09T03:12:18.457Z,98237.25
2023-07-09T03:14:19.956Z,98233.06
2023-07-09T03:16:21.475Z,98232.25
2023-07-09T03:18:22.872Z,98245.88
2023-07-09T03:20:24.323Z,98245.13
2023-07-09T03:22:25.686Z,98246.03
2023-07-09T03:24:27.115Z,98242.72
2023-07-09T03:26:29.003Z,98245.22
2023-07-09T03:28:30.364Z,98252.91
2023-07-09T03:30:31.838Z,98252.91
2023-07-09T03:32:33.277Z,98251.94
2023-07-09T03:34:34.764Z,98255.41
2023-07-09T03:36:38.745Z,98250.22
2023-07-09T03:38:40.516Z,98262.13
2023-07-09T03:40:41.957Z,98256.97
2023-07-09T03:42:43.320Z,98257.66
2023-07-09T03:44:44.793Z,98255.16
2023-07-09T03:46:46.262Z,98254.44
2023-07-09T03:48:47.914Z,98251.00
2023-07-09T03:50:49.478Z,98256.06
2023-07-09T03:52:50.939Z,98261.88
2023-07-09T03:54:52.372Z,98256.91
2023-07-09T03:56:53.803Z,98255.16
2023-07-09T03:58:55.221Z,98258.44
2023-07-09T04:00:56.659Z,98263.50
2023-07-09T04:02:58.111Z,98264.22
2023-07-09T04:04:59.450Z,98263.09
2023-07-09T04:07:00.996Z,98269.00
2023-07-09T04:09:02.485Z,98275.84
2023-07-09T04:11:03.928Z,98268.19
2023-07-09T04:13:05.376Z,98272.44
2023-07-09T04:15:07.054Z,98273.28
2023-07-09T04:17:08.504Z,98280.00
2023-07-09T04:19:09.891Z,98277.38
2023-07-09T04:21:11.293Z,98274.72
2023-07-09T04:23:12.710Z,98271.50
2023-07-09T04:25:14.142Z,98281.69
2023-07-09T04:27:15.689Z,98281.50
2023-07-09T04:29:17.204Z,98279.78
2023-07-09T04:31:18.604Z,98275.47
2023-07-09T04:33:20.060Z,98282.81
2023-07-09T04:35:21.827Z,98283.59
2023-07-09T04:37:23.313Z,98284.44
2023-07-09T04:39:24.749Z,98282.38
2023-07-09T04:41:26.231Z,98273.53
2023-07-09T04:43:27.663Z,98270.88
2023-07-09T04:45:29.035Z,98271.59
2023-07-09T04:47:30.781Z,98275.91
2023-07-09T04:49:32.209Z,98283.63
2023-07-09T04:51:33.603Z,98288.75
2023-07-09T04:53:37.891Z,98284.38
2023-07-09T04:55:40.603Z,98290.19
2023-07-09T04:57:42.032Z,98279.84
2023-07-09T04:59:43.562Z,98289.16
2023-07-09T05:01:45.095Z,98288.16
2023-07-09T05:03:46.614Z,98294.00
2023-07-09T05:05:48.054Z,98291.41
2023-07-09T05:07:49.509Z,98295.66
2023-07-09T05:09:50.948Z,98288.75
2023-07-09T05:11:52.507Z,98295.44
2023-07-09T05:13:54.334Z,98295.31
2023-07-09T05:15:55.859Z,98300.31
2023-07-09T05:17:57.441Z,98295.94
2023-07-09T05:19:58.886Z,98291.66
2023-07-09T05:22:00.348Z,98285.66
2023-07-09T05:24:01.795Z,98281.44
2023-07-09T05:26:09.525Z,98286.31
2023-07-09T05:28:10.944Z,98293.72
2023-07-09T05:30:12.438Z,98288.47
2023-07-09T05:32:13.839Z,98285.59
2023-07-09T05:34:15.279Z,98286.38
2023-07-09T05:36:17.088Z,98294.97
2023-07-09T05:38:18.579Z,98296.59
2023-07-09T05:40:19.974Z,98291.50
2023-07-09T05:42:21.354Z,98298.47
2023-07-09T05:44:22.746Z,98287.97
2023-07-09T05:46:24.414Z,98288.88
2023-07-09T05:48:25.875Z,98287.22
2023-07-09T05:50:27.344Z,98278.75
2023-07-09T05:52:29.849Z,98283.00
2023-07-09T05:54:31.251Z,98282.94
2023-07-09T05:56:32.734Z,98280.28
2023-07-09T05:58:34.217Z,98277.66
2023-07-09T06:00:38.698Z,98279.94
2023-07-09T06:02:40.196Z,98282.31
2023-07-09T06:04:41.653Z,98279.69
2023-07-09T06:06:43.250Z,98284.81
2023-07-09T06:08:44.742Z,98284.00
2023-07-09T06:10:46.664Z,98291.69
2023-07-09T06:12:48.105Z,98287.28
2023-07-09T06:14:49.480Z,98282.81
2023-07-09T06:16:50.891Z,98292.34
2023-07-09T06:18:52.416Z,98291.56
2023-07-09T06:20:59.560Z,98295.91
2023-07-09T06:23:01.615Z,98283.16
2023-07-09T06:25:03.096Z,98284.88
2023-07-09T06:27:07.599Z,98284.00
2023-07-09T06:29:09.011Z,98282.31
2023-07-09T06:31:10.509Z,98290.69
2023-07-09T06:33:14.569Z,98299.16
2023-07-09T06:35:16.031Z,98293.25
2023-07-09T06:37:20.327Z,98295.81
2023-07-09T06:39:21.755Z,98298.13
2023-07-09T06:41:23.205Z,98303.09
2023-07-09T06:43:24.610Z,98297.03
2023-07-09T06:45:26.053Z,98291.13
2023-07-09T06:47:27.468Z,98287.72
2023-07-09T06:49:28.926Z,98282.59
2023-07-09T06:51:30.438Z,98300.47
2023-07-09T06:53:31.832Z,98295.28
2023-07-09T06:55:33.200Z,98292.63
2023-07-09T06:57:34.571Z,98302.81
2023-07-09T06:59:35.900Z,98302.81
2023-07-09T07:01:37.295Z,98301.13
2023-07-09T07:03:38.834Z,98299.38
2023-07-09T07:05:41.324Z,98306.09
2023-07-09T07:07:42.725Z,98299.25
2023-07-09T07:09:44.136Z,98302.56
2023-07-09T07:11:45.578Z,98302.44
2023-07-09T07:13:49.381Z,98298.00
2023-07-09T07:15:50.959Z,98307.38
2023-07-09T07:17:52.499Z,98299.72
2023-07-09T07:19:54.027Z,98301.38
2023-07-09T07:21:55.410Z,98306.38
2023-07-09T07:23:56.850Z,98307.00
2023-07-09T07:25:58.198Z,98308.06
2023-07-09T07:27:59.550Z,98306.53
2023-07-09T07:30:00.995Z,98315.25
2023-07-09T07:32:05.629Z,98316.25
2023-07-09T07:34:07.005Z,98318.81
2023-07-09T07:38:12.785Z,98318.03
2023-07-09T07:40:14.261Z,98313.78
2023-07-09T07:42:15.665Z,98326.59
2023-07-09T07:44:17.120Z,98324.91
2023-07-09T07:46:18.579Z,98315.56
2023-07-09T07:48:20.221Z,98318.91
2023-07-09T07:50:21.658Z,98326.59
2023-07-09T07:52:23.034Z,98321.47
2023-07-09T07:54:24.556Z,98322.31
2023-07-09T07:56:27.005Z,98319.75
2023-07-09T07:58:28.427Z,98321.44
2023-07-09T08:00:29.822Z,98327.38
2023-07-09T08:02:33.844Z,98330.78
2023-07-09T08:04:35.448Z,98325.59
2023-07-09T08:06:36.819Z,98332.34
2023-07-09T08:08:38.173Z,98328.94
2023-07-09T08:10:39.777Z,98330.63
2023-07-09T08:12:41.163Z,98328.94
2023-07-09T08:14:42.566Z,98335.78
2023-07-09T08:16:43.972Z,98329.84
2023-07-09T08:18:45.478Z,98327.28
2023-07-09T08:20:46.906Z,98327.28
2023-07-09T08:22:48.296Z,98320.41
2023-07-09T08:24:49.701Z,98317.84
2023-07-09T08:26:51.137Z,98325.53
2023-07-09T08:28:53.084Z,98317.78
2023-07-09T08:30:54.625Z,98315.13
2023-07-09T08:32:57.065Z,98320.25
2023-07-09T08:35:29.795Z,98316.81
2023-07-09T08:37:19.821Z,98312.53
2023-07-09T08:39:21.429Z,98320.25
2023-07-09T08:41:22.885Z,98316.03
2023-07-09T08:43:24.354Z,98310.00
2023-07-09T08:45:25.729Z,98315.09
2023-07-09T08:47:27.166Z,98313.38
2023-07-09T08:49:28.613Z,98311.66
2023-07-09T08:51:30.113Z,98308.25
2023-07-09T08:53:31.495Z,98315.09
2023-07-09T08:55:39.424Z,98309.94
2023-07-09T08:57:40.988Z,98322.75
2023-07-09T08:59:42.433Z,98189.81
2023-07-09T09:01:43.879Z,98319.34
2023-07-09T09:03:45.370Z,98317.66
2023-07-09T09:05:46.788Z,98321.06
2023-07-09T09:07:53.815Z,98316.72
2023-07-09T09:09:55.177Z,98312.50
2023-07-09T09:11:56.633Z,98312.53
2023-07-09T09:13:58.114Z,98304.00
2023-07-09T09:15:59.597Z,98306.56
2023-07-09T09:18:01.025Z,98307.41
2023-07-09T09:20:02.453Z,98308.28
2023-07-09T09:22:08.398Z,98313.41
2023-07-09T09:24:09.911Z,98175.34
2023-07-09T09:26:14.328Z,98314.56
2023-07-09T09:28:16.013Z,98318.69
2023-07-09T09:30:17.682Z,98314.66
2023-07-09T09:32:19.139Z,98318.22
2023-07-09T09:34:20.615Z,98316.63
2023-07-09T09:36:24.883Z,98318.44
2023-07-09T09:38:26.272Z,98307.38
2023-07-09T09:40:27.871Z,98319.38
2023-07-09T09:42:29.228Z,98321.09
2023-07-09T09:44:31.518Z,98325.38
2023-07-09T09:46:32.968Z,98322.00
2023-07-09T09:48:35.048Z,98326.31
2023-07-09T09:50:41.352Z,98314.47
2023-07-09T09:52:43.241Z,98317.38
2023-07-09T09:54:44.624Z,98311.41
2023-07-09T09:56:46.054Z,98315.53
2023-07-09T09:58:50.455Z,98317.19
2023-07-09T10:00:53.022Z,98308.53
2023-07-09T10:02:54.678Z,98311.94
2023-07-09T10:04:56.135Z,98317.91
2023-07-09T10:06:57.602Z,98314.50
2023-07-09T10:08:59.076Z,98317.03
2023-07-09T10:11:00.604Z,98317.91
2023-07-09T10:13:02.129Z,98320.47
2023-07-09T10:15:03.521Z,98316.28
2023-07-09T10:17:04.901Z,98305.97
2023-07-09T10:19:06.524Z,98310.25
2023-07-09T10:21:08.037Z,98315.47
2023-07-09T10:23:09.486Z,98311.63
2023-07-09T10:25:10.913Z,98310.72
2023-07-09T10:27:12.348Z,98311.69
2023-07-09T10:29:13.711Z,98319.31
2023-07-09T10:31:15.125Z,98313.34
2023-07-09T10:33:16.524Z,98315.72
2023-07-09T10:35:17.904Z,98320.72
2023-07-09T10:37:20.813Z,98314.78
2023-07-09T10:39:22.562Z,98308.78
2023-07-09T10:41:27.371Z,98315.63
2023-07-09T10:43:30.388Z,98312.19
2023-07-09T10:45:33.470Z,98313.00
2023-07-09T10:47:34.893Z,98312.13
2023-07-09T10:49:37.598Z,98315.53
2023-07-09T10:51:39.076Z,98306.09
2023-07-09T10:53:40.527Z,98311.22
2023-07-09T10:55:41.971Z,98310.38
2023-07-09T10:57:43.457Z,98304.41
2023-07-09T10:59:44.920Z,98298.44
2023-07-09T11:01:46.872Z,98295.06
2023-07-09T11:03:51.461Z,98301.00
2023-07-09T11:05:52.983Z,98295.06
2023-07-09T11:07:54.917Z,98304.41
2023-07-09T11:09:58.108Z,98300.97
2023-07-09T11:11:59.720Z,98293.84
2023-07-09T11:14:02.004Z,98291.81
2023-07-09T11:16:04.215Z,98294.16
2023-07-09T11:18:05.860Z,98295.91
2023-07-09T11:20:07.309Z,98291.84
2023-07-09T11:22:08.785Z,98300.75
2023-07-09T11:24:10.159Z,98301.38
2023-07-09T11:26:11.565Z,98301.25
2023-07-09T11:28:13.257Z,98286.63
2023-07-09T11:30:15.602Z,98285.72
2023-07-09T11:32:17.151Z,98279.59
2023-07-09T11:34:18.772Z,98289.81
2023-07-09T11:36:20.211Z,98291.50
2023-07-09T11:38:21.677Z,98284.69
2023-07-09T11:40:25.791Z,98274.34
2023-07-09T11:42:27.291Z,98273.44
2023-07-09T11:44:29.711Z,98268.28
2023-07-09T11:46:31.099Z,98263.16
2023-07-09T11:48:32.583Z,98265.59
2023-07-09T11:50:33.980Z,98261.94
2023-07-09T11:52:35.367Z,98271.25
2023-07-09T11:54:37.047Z,98264.25
2023-07-09T11:56:38.453Z,98269.38
2023-07-09T11:58:39.850Z,98266.72
2023-07-09T12:00:42.249Z,98260.69
2023-07-09T12:02:43.760Z,98270.84
2023-07-09T12:04:45.192Z,98264.41
2023-07-09T12:06:46.615Z,98257.28
2023-07-09T12:08:48.069Z,98262.84
2023-07-09T12:10:49.495Z,98259.56
2023-07-09T12:12:50.919Z,98253.75
2023-07-09T12:14:52.256Z,98252.09
2023-07-09T12:16:53.693Z,98247.00
2023-07-09T12:18:55.090Z,98252.25
2023-07-09T12:20:56.555Z,98247.97
2023-07-09T12:22:58.087Z,98251.41
2023-07-09T12:24:59.517Z,98249.63
2023-07-09T12:27:00.911Z,98240.47
2023-07-09T12:29:05.362Z,98245.72
2023-07-09T12:31:07.245Z,98250.13
2023-07-09T12:33:09.520Z,98242.34
2023-07-09T12:35:10.984Z,98245.03
2023-07-09T12:37:13.802Z,98240.94
2023-07-09T12:39:15.219Z,98241.06
2023-07-09T12:41:16.608Z,98242.00
2023-07-09T12:43:17.975Z,98241.16
2023-07-09T12:45:19.874Z,98244.63
2023-07-09T12:47:24.173Z,98236.09
2023-07-09T12:49:25.675Z,98229.28
2023-07-09T12:51:28.314Z,98233.53
2023-07-09T12:53:29.756Z,98216.47
2023-07-09T12:55:32.918Z,98222.44
2023-07-09T12:57:34.768Z,98224.16
2023-07-09T12:59:36.177Z,98219.03
2023-07-09T13:01:39.394Z,98222.50
2023-07-09T13:03:41.260Z,98224.16
2023-07-09T13:05:42.827Z,98224.16
2023-07-09T13:07:44.215Z,98217.38
2023-07-09T13:09:46.059Z,98207.94
2023-07-09T13:11:48.726Z,98213.06
2023-07-09T13:13:50.157Z,98217.38
2023-07-09T13:15:51.619Z,98207.94
2023-07-09T13:17:53.121Z,98220.78
2023-07-09T13:19:56.737Z,98204.56
2023-07-09T13:21:58.166Z,98203.72
2023-07-09T13:23:59.612Z,98203.72
2023-07-09T13:26:01.537Z,98208.84
2023-07-09T13:28:02.948Z,98207.97
2023-07-09T13:30:04.351Z,98223.38
2023-07-09T13:32:05.734Z,98218.28
2023-07-09T13:34:07.469Z,98213.09
2023-07-09T13:36:08.961Z,98217.38
2023-07-09T13:38:10.380Z,98206.28
2023-07-09T13:40:11.851Z,98215.69
2023-07-09T13:42:13.251Z,98227.63
2023-07-09T13:44:14.844Z,98219.09
2023-07-09T13:46:16.266Z,98213.97
2023-07-09T13:48:17.862Z,98206.28
2023-07-09T13:50:19.378Z,98206.28
2023-07-09T13:52:21.105Z,98214.81
2023-07-09T13:54:22.636Z,98213.09
2023-07-09T13:56:26.876Z,98203.72
2023-07-09T13:58:28.370Z,98199.44
2023-07-09T14:00:29.875Z,98202.88
2023-07-09T14:02:33.162Z,98196.88
2023-07-09T14:04:34.792Z,98202.81
2023-07-09T14:06:36.377Z,98207.13
2023-07-09T14:08:38.023Z,98197.69
2023-07-09T14:10:39.844Z,98205.38
2023-07-09T14:12:41.269Z,98202.81
2023-07-09T14:14:46.066Z,98208.84
2023-07-09T14:16:48.867Z,98207.13
2023-07-09T14:18:50.434Z,98201.16
2023-07-09T14:20:51.871Z,98200.28
2023-07-09T14:22:53.285Z,98194.38
2023-07-09T14:24:54.743Z,98187.56
2023-07-09T14:26:56.129Z,98195.22
2023-07-09T14:28:58.637Z,98197.72
2023-07-09T14:31:00.114Z,98187.47
2023-07-09T14:33:01.599Z,98190.91
2023-07-09T14:35:03.176Z,98195.22
2023-07-09T14:37:04.637Z,98194.31
2023-07-09T14:39:06.572Z,98202.88
2023-07-09T14:41:08.223Z,98190.09
2023-07-09T14:43:09.684Z,98185.78
2023-07-09T14:45:11.122Z,98186.69
2023-07-09T14:47:12.515Z,98189.25
2023-07-09T14:49:13.937Z,98188.41
2023-07-09T14:51:16.135Z,98186.69
2023-07-09T14:53:17.563Z,98182.44
2023-07-09T14:55:19.055Z,98194.38
2023-07-09T14:57:20.506Z,98187.56
2023-07-09T14:59:21.963Z,98186.69
2023-07-09T15:01:25.629Z,98180.75
2023-07-09T15:03:27.585Z,98185.00
2023-07-09T15:05:29.384Z,98184.16
2023-07-09T15:07:31.287Z,98178.19
2023-07-09T15:09:35.598Z,98178.19
2023-07-09T15:11:38.353Z,98174.75
2023-07-09T15:13:39.918Z,98178.19
2023-07-09T15:15:41.409Z,98175.63
2023-07-09T15:17:42.840Z,98177.38
2023-07-09T15:19:44.332Z,98175.63
2023-07-09T15:21:51.418Z,98166.28
2023-07-09T15:23:52.782Z,98173.06
2023-07-09T15:25:54.291Z,98173.06
2023-07-09T15:27:57.449Z,98162.94
2023-07-09T15:29:58.969Z,98162.94
2023-07-09T15:32:01.890Z,98167.16
2023-07-09T15:34:03.433Z,98155.25
2023-07-09T15:36:04.831Z,98157.81
2023-07-09T15:38:06.269Z,98156.97
2023-07-09T15:40:07.671Z,98149.25
2023-07-09T15:42:09.205Z,98145.00
2023-07-09T15:44:10.686Z,98140.75
2023-07-09T15:46:12.231Z,98145.84
2023-07-09T15:48:13.761Z,98145.00
2023-07-09T15:50:15.171Z,98137.31
2023-07-09T15:52:16.577Z,98148.47
2023-07-09T15:54:18.085Z,98134.81
2023-07-09T15:56:19.993Z,98139.09
2023-07-09T15:58:21.445Z,98139.94
2023-07-09T16:00:23.168Z,98133.97
2023-07-09T16:02:24.901Z,98134.81
2023-07-09T16:04:26.576Z,98131.41
2023-07-09T16:06:28.054Z,98131.41
2023-07-09T16:08:30.413Z,98129.69
2023-07-09T16:10:31.846Z,98130.56
2023-07-09T16:12:33.236Z,98123.75
2023-07-09T16:14:34.675Z,98120.31
2023-07-09T16:16:36.239Z,98123.75
2023-07-09T16:18:37.672Z,98112.69
2023-07-09T16:20:39.048Z,98121.25
2023-07-09T16:22:40.557Z,98115.25
2023-07-09T16:24:42.019Z,98123.81
2023-07-09T16:26:46.485Z,98111.84
2023-07-09T16:28:47.877Z,98113.56
2023-07-09T16:30:51.500Z,98105.03
2023-07-09T16:32:52.972Z,98105.03
2023-07-09T16:34:54.389Z,98108.50
2023-07-09T16:36:55.839Z,98108.50
2023-07-09T16:38:57.304Z,98095.69
2023-07-09T16:40:58.699Z,98101.63
2023-07-09T16:43:05.539Z,98100.81
2023-07-09T16:45:06.940Z,98105.94
2023-07-09T16:47:08.322Z,98095.69
2023-07-09T16:49:09.775Z,98099.91
2023-07-09T16:51:11.381Z,98090.56
2023-07-09T16:53:12.810Z,98099.13
2023-07-09T16:55:14.232Z,98097.41
2023-07-09T16:57:16.010Z,98099.56
2023-07-09T16:59:17.440Z,98096.19
2023-07-09T17:01:19.133Z,98094.94
2023-07-09T17:03:20.683Z,98090.16
2023-07-09T17:05:22.274Z,98094.16
2023-07-09T17:07:23.749Z,98090.69
2023-07-09T17:09:25.199Z,98080.63
2023-07-09T17:11:26.566Z,98075.22
2023-07-09T17:13:31.024Z,98078.72
2023-07-09T17:15:32.610Z,98076.00
2023-07-09T17:17:34.101Z,98087.22
2023-07-09T17:19:35.512Z,98087.72
2023-07-09T17:21:36.924Z,98085.72
2023-07-09T17:23:38.343Z,98076.41
2023-07-09T17:25:39.780Z,98083.06
2023-07-09T17:27:41.195Z,98083.63
2023-07-09T17:29:42.599Z,98080.06
2023-07-09T17:31:43.976Z,98088.63
2023-07-09T17:33:45.356Z,98089.50
2023-07-09T17:35:46.791Z,97950.44
2023-07-09T17:37:48.307Z,98088.97
2023-07-09T17:39:49.793Z,98089.94
2023-07-09T17:41:51.237Z,98086.41
2023-07-09T17:43:52.621Z,98088.19
2023-07-09T17:45:54.105Z,98082.66
2023-07-09T17:47:55.680Z,98084.38
2023-07-09T17:50:00.132Z,98090.41
2023-07-09T17:52:01.648Z,98086.72
2023-07-09T17:54:03.068Z,98089.41
2023-07-09T17:56:04.724Z,98092.97
2023-07-09T17:58:06.382Z,98098.19
2023-07-09T18:00:07.986Z,98091.44
2023-07-09T18:02:09.501Z,98093.16
2023-07-09T18:04:14.582Z,98093.22
2023-07-09T18:06:18.292Z,98096.59
2023-07-09T18:08:19.731Z,98094.88
2023-07-09T18:10:22.359Z,98097.50
2023-07-09T18:12:23.777Z,98103.41
2023-07-09T18:14:25.197Z,98102.63
2023-07-09T18:16:26.712Z,98109.41
2023-07-09T18:18:28.297Z,98112.38
2023-07-09T18:20:29.772Z,98112.56
2023-07-09T18:22:32.553Z,98117.66
2023-07-09T18:24:34.252Z,98111.34
2023-07-09T18:26:35.702Z,98117.13
2023-07-09T18:28:37.119Z,98115.81
2023-07-09T18:30:38.617Z,98119.84
2023-07-09T18:32:40.162Z,98119.09
2023-07-09T18:34:41.626Z,98123.38
2023-07-09T18:36:43.434Z,98129.94
2023-07-09T18:38:45.145Z,98129.38
2023-07-09T18:40:46.588Z,98134.63
2023-07-09T18:42:48.072Z,98131.84
2023-07-09T18:44:49.481Z,98129.53
2023-07-09T18:46:50.835Z,98129.94
2023-07-09T18:48:52.293Z,98142.09
2023-07-09T18:50:53.713Z,98143.53
2023-07-09T18:52:55.153Z,98140.75
2023-07-09T18:54:56.508Z,98139.09
2023-07-09T18:56:57.849Z,98147.78
2023-07-09T18:58:59.227Z,98153.19
2023-07-09T19:01:00.603Z,98156.16
2023-07-09T19:03:02.024Z,98155.59
2023-07-09T19:05:03.529Z,98151.28
2023-07-09T19:07:05.073Z,98137.50
2023-07-09T19:09:07.314Z,98146.31
2023-07-09T19:11:08.752Z,98144.22
2023-07-09T19:13:12.861Z,98151.84
2023-07-09T19:15:14.344Z,98147.06
2023-07-09T19:17:15.797Z,98148.31
2023-07-09T19:19:20.116Z,98137.66
2023-07-09T19:21:21.614Z,98140.41
2023-07-09T19:23:24.068Z,98137.06
2023-07-09T19:25:25.632Z,98147.56
2023-07-09T19:27:27.089Z,98133.28
2023-07-09T19:29:28.600Z,98135.03
2023-07-09T19:31:30.020Z,98146.66
2023-07-09T19:33:31.441Z,98138.16
2023-07-09T19:35:32.866Z,98145.13
2023-07-09T19:37:34.404Z,98143.06
2023-07-09T19:39:36.329Z,98142.47
2023-07-09T19:41:37.777Z,98141.06
2023-07-09T19:43:39.188Z,98141.81
2023-07-09T19:45:40.728Z,98148.56
2023-07-09T19:47:42.136Z,98147.84
2023-07-09T19:49:46.528Z,98145.59
2023-07-09T19:51:48.153Z,98146.25
2023-07-09T19:53:49.582Z,98151.75
2023-07-09T19:55:51.000Z,98153.63
2023-07-09T19:57:52.356Z,98152.06
2023-07-09T19:59:53.867Z,98021.19
2023-07-09T20:01:55.304Z,98150.88
2023-07-09T20:03:56.788Z,98150.66
2023-07-09T20:05:58.222Z,98150.50
2023-07-09T20:07:59.603Z,98146.56
2023-07-09T20:10:01.178Z,98149.75
2023-07-09T20:12:07.474Z,98153.31
2023-07-09T20:14:08.871Z,98144.69
2023-07-09T20:16:10.307Z,98149.00
2023-07-09T20:18:12.947Z,98151.38
2023-07-09T20:20:14.436Z,98152.28
2023-07-09T20:22:15.894Z,98151.91
2023-07-09T20:24:17.234Z,98156.94
2023-07-09T20:26:18.613Z,98156.41
2023-07-09T20:28:20.056Z,98153.09
2023-07-09T20:30:21.442Z,98154.03
2023-07-09T20:32:22.959Z,98149.31
2023-07-09T20:34:27.550Z,98146.94
2023-07-09T20:36:29.017Z,98144.91
2023-07-09T20:38:30.570Z,98146.81
2023-07-09T20:40:32.043Z,98156.00
2023-07-09T20:42:33.420Z,98144.81
2023-07-09T20:44:34.871Z,98142.47
2023-07-09T20:46:36.307Z,98145.50
2023-07-09T20:48:37.750Z,98141.66
2023-07-09T20:50:39.223Z,98142.44
2023-07-09T20:52:40.661Z,98138.88
2023-07-09T20:54:42.031Z,98134.28
2023-07-09T20:56:43.471Z,98136.06
2023-07-09T20:58:45.017Z,98142.94
2023-07-09T21:00:46.596Z,98142.94
2023-07-09T21:02:48.223Z,98142.06
2023-07-09T21:04:49.717Z,98149.03
2023-07-09T21:06:51.173Z,98146.59
2023-07-09T21:08:52.549Z,98152.59
2023-07-09T21:10:53.998Z,98147.63
2023-07-09T21:12:55.404Z,98150.34
2023-07-09T21:14:56.798Z,98150.50
2023-07-09T21:16:58.546Z,98157.38
2023-07-09T21:18:59.987Z,98152.38
2023-07-09T21:23:02.781Z,98159.41
2023-07-09T21:25:04.222Z,98156.84
2023-07-09T21:27:05.659Z,98151.75
2023-07-09T21:29:07.109Z,98150.97
2023-07-09T21:31:08.531Z,98153.63
2023-07-09T21:33:10.095Z,98156.28
2023-07-09T21:35:11.539Z,98159.75
2023-07-09T21:37:12.935Z,98156.38
2023-07-09T21:39:14.289Z,98153.06
2023-07-09T21:41:15.736Z,98161.66
2023-07-09T21:43:17.102Z,98155.72
2023-07-09T21:45:18.762Z,98160.78
2023-07-09T21:47:20.246Z,98158.25
2023-07-09T21:49:22.500Z,98160.91
2023-07-09T21:51:23.977Z,98161.81
2023-07-09T21:53:39.698Z,98152.44
2023-07-09T21:55:46.813Z,98154.06
2023-07-09T21:57:48.207Z,98153.25
2023-07-09T21:59:49.598Z,98151.78
2023-07-09T22:01:51.061Z,98150.22
2023-07-09T22:03:55.427Z,98156.19
2023-07-09T22:05:56.945Z,98152.84
2023-07-09T22:07:58.380Z,98152.97
2023-07-09T22:09:59.777Z,98155.59
2023-07-09T22:12:02.421Z,98155.59
2023-07-09T22:14:03.979Z,98147.97
2023-07-09T22:16:05.930Z,98155.59
2023-07-09T22:18:07.598Z,98151.38
2023-07-09T22:20:08.970Z,98154.03
2023-07-09T22:22:10.346Z,98142.16
2023-07-09T22:24:11.788Z,98138.75
2023-07-09T22:26:13.200Z,98138.84
2023-07-09T22:28:14.646Z,98132.81
2023-07-09T22:30:16.111Z,98128.63
2023-07-09T22:32:17.610Z,98136.28
2023-07-09T22:34:19.346Z,98132.84
2023-07-09T22:36:20.742Z,98125.16
2023-07-09T22:38:22.178Z,98120.06
2023-07-09T22:40:24.167Z,98130.31
2023-07-09T22:42:25.586Z,98115.97
2023-07-09T22:44:26.994Z,98120.16
2023-07-09T22:46:28.446Z,98129.47
2023-07-09T22:48:29.891Z,98128.75
2023-07-09T22:50:31.321Z,98135.69
2023-07-09T22:52:32.711Z,98134.09
2023-07-09T22:54:34.149Z,98133.25
2023-07-09T22:56:35.546Z,98140.81
2023-07-09T22:58:36.911Z,98139.91
2023-07-09T23:00:38.313Z,98137.31
2023-07-09T23:02:39.836Z,98144.94
2023-07-09T23:04:41.837Z,98130.44
2023-07-09T23:06:43.456Z,98132.00
2023-07-09T23:08:44.881Z,98142.25
2023-07-09T23:10:46.296Z,98131.34
2023-07-09T23:12:47.763Z,98133.06
2023-07-09T23:14:49.145Z,98133.94
2023-07-09T23:16:51.038Z,98138.31
2023-07-09T23:18:53.350Z,98143.34
2023-07-09T23:20:55.251Z,98130.50
2023-07-09T23:22:59.724Z,98126.38
2023-07-09T23:25:01.118Z,98132.41
2023-07-09T23:27:02.729Z,98129.97
2023-07-09T23:29:04.176Z,98134.28
2023-07-09T23:31:05.619Z,98133.44
2023-07-09T23:33:07.084Z,98127.53
2023-07-09T23:35:08.525Z,98118.09
2023-07-09T23:37:09.914Z,98119.03
2023-07-09T23:39:11.305Z,98121.59
2023-07-09T23:41:12.726Z,98112.31
2023-07-09T23:43:14.120Z,98114.81
2023-07-09T23:45:15.788Z,98108.84
2023-07-09T23:47:17.830Z,98101.97
2023-07-09T23:49:19.405Z,98102.84
2023-07-09T23:51:20.822Z,98101.13
2023-07-09T23:53:22.218Z,98101.84
2023-07-09T23:55:23.624Z,98100.03